Strona główna
METAR-TAF:

METAR-TAF

Lotnisko :

Payerne, Szwajcaria

Szerokość geograficzna: 46-49N, Długość geograficzna: 006-57E, wysokość: 490 m

Aktualna obserwacja pogody

Raport powstał 22 minut temu, godzina 21:50 UTC
Wiatr 16 kt od południowy zachód, zmienny między południe i zachód
Temperatura 10°C
Wilgotność 71%
Ciśnienie 1011 hPa
Widzialność 10 km lub więcej
Przerywane chmury na wysokości 3800 ft
Zachmurzenie całkowite na wysokości 4300 ft

METAR: LSMP 082150Z AUTO 23016KT 190V260 9999NDV BKN038 OVC043 10/05 Q1011 RMK

czas: 23:12 (22:12 UTC)


TAF: brakujący

Obserwacja i prognoza pogody dla ponad 4000 lotnisk (raport METAR i TAF).

Dostępne stacje oznaczono żółtymi i czerwonymi punktami na mapie.

Najedź kursorem aby zobaczyć nazwę stacji.

Kliknij aby zobaczyć obserwacje i prognozy pogody.

Aby zmienić mapę: kliknij na zielony przycisk z czarnym krzyżykiem, aby powiększyć; na zielony przycisk z myślnikiem, aby pomniejszyć; na zielone strzałki, aby przejść do map sąsiednich.


METAR-TAF: